createdAt,value
2022-08-24T00:00:28.795Z,101594.47
2022-08-24T00:03:34.650Z,101602.84
2022-08-24T00:06:37.717Z,101600.66
2022-08-24T00:09:40.425Z,101609.63
2022-08-24T00:12:44.711Z,101610.75
2022-08-24T00:15:47.676Z,101604.94
2022-08-24T00:18:50.867Z,101607.19
2022-08-24T00:21:53.792Z,101598.00
2022-08-24T00:24:56.727Z,101599.13
2022-08-24T00:28:01.673Z,101592.22
2022-08-24T00:31:08.045Z,101598.69
2022-08-24T00:34:13.467Z,101596.19
2022-08-24T00:37:16.280Z,101599.28
2022-08-24T00:40:24.272Z,101605.94
2022-08-24T00:43:29.464Z,101607.06
2022-08-24T00:46:39.174Z,101606.22
2022-08-24T00:49:45.139Z,101596.75
2022-08-24T00:52:52.869Z,101598.44
2022-08-24T00:56:02.502Z,101609.94
2022-08-24T00:59:12.292Z,101603.66
2022-08-24T01:02:18.786Z,101596.22
2022-08-24T01:05:21.871Z,101597.09
2022-08-24T01:08:25.190Z,101598.22
2022-08-24T01:11:33.866Z,101600.69
2022-08-24T01:14:39.370Z,101597.69
2022-08-24T01:17:59.945Z,101591.38
2022-08-24T01:21:08.113Z,101600.66
2022-08-24T01:24:13.941Z,101604.50
2022-08-24T01:27:17.678Z,101596.81
2022-08-24T01:30:36.198Z,101596.81
2022-08-24T01:33:39.551Z,101600.53
2022-08-24T01:36:46.107Z,101613.34
2022-08-24T01:39:53.656Z,101605.84
2022-08-24T01:42:57.349Z,101609.84
2022-08-24T01:46:00.143Z,101609.84
2022-08-24T01:49:03.175Z,101607.06
2022-08-24T01:52:07.344Z,101615.16
2022-08-24T01:55:13.490Z,101612.38
2022-08-24T01:58:17.362Z,101619.00
2022-08-24T02:01:20.447Z,101625.47
2022-08-24T02:04:23.590Z,101620.00
2022-08-24T02:07:26.573Z,101627.88
2022-08-24T02:10:31.137Z,101628.69
2022-08-24T02:13:33.943Z,101618.69
2022-08-24T02:16:36.917Z,101622.97
2022-08-24T02:19:39.747Z,101623.00
2022-08-24T02:22:42.511Z,101623.88
2022-08-24T02:25:46.719Z,101619.44
2022-08-24T02:28:49.412Z,101620.03
2022-08-24T02:31:52.567Z,101617.84
2022-08-24T02:34:55.224Z,101615.88
2022-08-24T02:37:58.716Z,101625.34
2022-08-24T02:41:03.314Z,101628.66
2022-08-24T02:44:07.023Z,101619.19
2022-08-24T02:47:10.353Z,101618.06
2022-08-24T02:50:15.379Z,101613.63
2022-08-24T02:53:20.773Z,101608.38
2022-08-24T02:56:24.927Z,101606.13
2022-08-24T02:59:27.705Z,101606.72
2022-08-24T03:02:30.464Z,101606.22
2022-08-24T03:05:33.644Z,101607.63
2022-08-24T03:08:37.956Z,101602.06
2022-08-24T03:11:45.249Z,101611.44
2022-08-24T03:14:48.479Z,101613.44
2022-08-24T03:17:52.103Z,101609.34
2022-08-24T03:20:54.827Z,101603.28
2022-08-24T03:23:58.057Z,101609.44
2022-08-24T03:27:02.128Z,101605.53
2022-08-24T03:30:08.348Z,101606.41
2022-08-24T03:33:11.401Z,101617.47
2022-08-24T03:36:15.503Z,101616.94
2022-08-24T03:39:18.666Z,101618.31
2022-08-24T03:42:22.707Z,101620.25
2022-08-24T03:45:25.510Z,101619.72
2022-08-24T03:48:28.580Z,101613.84
2022-08-24T03:51:31.781Z,101621.09
2022-08-24T03:54:35.140Z,101610.31
2022-08-24T03:57:39.189Z,101615.06
2022-08-24T04:00:42.901Z,101610.59
2022-08-24T04:03:47.458Z,101622.19
2022-08-24T04:06:50.411Z,101628.88
2022-08-24T04:09:53.229Z,101631.97
2022-08-24T04:12:57.432Z,101621.63
2022-08-24T04:16:05.515Z,101629.72
2022-08-24T04:19:08.341Z,101637.84
2022-08-24T04:22:11.013Z,101635.38
2022-08-24T04:25:13.971Z,101629.22
2022-08-24T04:28:21.319Z,101636.16
2022-08-24T04:31:24.973Z,101640.00
2022-08-24T04:34:31.379Z,101642.50
2022-08-24T04:37:34.086Z,101643.03
2022-08-24T04:40:40.010Z,101643.25
2022-08-24T04:43:45.171Z,101643.47
2022-08-24T04:46:49.093Z,101645.41
2022-08-24T04:49:51.887Z,101652.03
2022-08-24T04:52:54.672Z,101655.66
2022-08-24T04:55:57.452Z,101656.41
2022-08-24T04:59:01.636Z,101648.56
2022-08-24T05:02:05.701Z,101665.75
2022-08-24T05:05:09.400Z,101661.84
2022-08-24T05:08:13.328Z,101664.91
2022-08-24T05:11:18.057Z,101664.91
2022-08-24T05:14:25.575Z,101669.94
2022-08-24T05:17:30.709Z,101674.38
2022-08-24T05:20:33.592Z,101681.81
2022-08-24T05:23:37.189Z,101677.69
2022-08-24T05:26:40.524Z,101684.09
2022-08-24T05:29:46.555Z,101690.50
2022-08-24T05:32:49.726Z,101692.00
2022-08-24T05:35:52.484Z,101689.75
2022-08-24T05:38:57.055Z,101698.84
2022-08-24T05:42:00.971Z,101693.81
2022-08-24T05:45:06.791Z,101691.81
2022-08-24T05:48:09.589Z,101695.97
2022-08-24T05:51:12.928Z,101698.09
2022-08-24T05:54:15.615Z,101694.16
2022-08-24T05:57:18.439Z,101690.56
2022-08-24T06:00:23.234Z,101697.56
2022-08-24T06:03:26.021Z,101693.97
2022-08-24T06:06:29.345Z,101689.78
2022-08-24T06:09:32.528Z,101701.47
2022-08-24T06:12:35.332Z,101701.44
2022-08-24T06:15:42.682Z,101699.53
2022-08-24T06:18:46.686Z,101701.97
2022-08-24T06:21:52.229Z,101704.69
2022-08-24T06:25:12.437Z,101712.06
2022-08-24T06:28:15.656Z,101720.94
2022-08-24T06:31:20.942Z,101715.22
2022-08-24T06:34:26.237Z,101715.47
2022-08-24T06:37:29.801Z,101713.75
2022-08-24T06:40:32.759Z,101718.66
2022-08-24T06:43:35.589Z,101716.81
2022-08-24T06:46:39.694Z,101713.19
2022-08-24T06:49:42.785Z,101729.66
2022-08-24T06:52:45.545Z,101733.13
2022-08-24T06:55:50.562Z,101739.09
2022-08-24T06:58:53.568Z,101738.41
2022-08-24T07:01:57.827Z,101743.22
2022-08-24T07:05:01.102Z,101747.50
2022-08-24T07:08:04.520Z,101752.56
2022-08-24T07:11:08.118Z,101754.53
2022-08-24T07:14:11.361Z,101757.41
2022-08-24T07:17:15.613Z,101744.19
2022-08-24T07:20:18.616Z,101751.59
2022-08-24T07:23:22.363Z,101738.72
2022-08-24T07:26:43.922Z,101748.88
2022-08-24T07:29:53.034Z,101747.56
2022-08-24T07:33:09.226Z,101747.94
2022-08-24T07:36:21.907Z,101752.31
2022-08-24T07:39:24.923Z,101744.78
2022-08-24T07:42:31.862Z,101750.25
2022-08-24T07:45:35.472Z,101749.13
2022-08-24T07:48:39.552Z,101757.81
2022-08-24T07:51:46.998Z,101751.22
2022-08-24T07:54:50.188Z,101765.78
2022-08-24T07:57:53.239Z,101758.56
2022-08-24T08:00:56.263Z,101765.59
2022-08-24T08:04:00.449Z,101767.31
2022-08-24T08:07:03.137Z,101773.03
2022-08-24T08:10:06.827Z,101768.50
2022-08-24T08:13:09.847Z,101755.91
2022-08-24T08:16:14.247Z,101757.97
2022-08-24T08:19:18.655Z,101769.56
2022-08-24T08:22:39.179Z,101761.50
2022-08-24T08:25:46.872Z,101765.75
2022-08-24T08:28:50.551Z,101764.19
2022-08-24T08:31:54.610Z,101760.09
2022-08-24T08:35:02.099Z,101767.34
2022-08-24T08:38:06.143Z,101766.72
2022-08-24T08:41:38.330Z,101755.94
2022-08-24T08:44:53.398Z,101762.50
2022-08-24T08:48:16.158Z,101763.00
2022-08-24T08:51:59.396Z,101767.28
2022-08-24T08:55:09.530Z,101776.00
2022-08-24T08:58:24.560Z,101767.59
2022-08-24T09:01:44.161Z,101773.88
2022-08-24T09:05:05.373Z,101769.69
2022-08-24T09:08:22.504Z,101772.03
2022-08-24T09:11:38.224Z,101761.63
2022-08-24T09:15:05.105Z,101775.88
2022-08-24T09:18:18.511Z,101768.69
2022-08-24T09:21:46.639Z,101767.38
2022-08-24T09:25:16.866Z,101769.06
2022-08-24T09:28:36.954Z,101769.06
2022-08-24T09:31:53.633Z,101762.78
2022-08-24T09:35:01.191Z,101768.72
2022-08-24T09:38:18.770Z,101767.56
2022-08-24T09:41:50.140Z,101764.09
2022-08-24T09:45:25.409Z,101763.44
2022-08-24T09:49:22.070Z,101768.31
2022-08-24T09:52:57.045Z,101767.47
2022-08-24T09:56:11.980Z,101768.56
2022-08-24T09:59:32.993Z,101766.28
2022-08-24T10:02:50.493Z,101762.28
2022-08-24T10:06:15.680Z,101762.84
2022-08-24T10:09:45.665Z,101759.69
2022-08-24T10:13:04.213Z,101766.19
2022-08-24T10:16:21.524Z,101763.66
2022-08-24T10:19:49.482Z,101762.16
2022-08-24T10:23:11.458Z,101758.03
2022-08-24T10:26:22.360Z,101747.59
2022-08-24T10:29:38.503Z,101763.47
2022-08-24T10:33:10.083Z,101746.09
2022-08-24T10:36:27.895Z,101751.97
2022-08-24T10:40:02.904Z,101734.84
2022-08-24T10:43:35.650Z,101746.22
2022-08-24T10:46:50.179Z,101736.47
2022-08-24T10:50:30.910Z,101739.69
2022-08-24T10:53:35.058Z,101738.66
2022-08-24T10:56:42.429Z,101737.56
2022-08-24T10:59:56.210Z,101737.38
2022-08-24T11:03:12.831Z,101726.63
2022-08-24T11:06:19.452Z,101733.09
2022-08-24T11:09:22.069Z,101725.75
2022-08-24T11:12:31.191Z,101733.88
2022-08-24T11:15:33.989Z,101719.53
2022-08-24T11:18:52.344Z,101730.16
2022-08-24T11:21:58.669Z,101731.94
2022-08-24T11:25:05.155Z,101728.22
2022-08-24T11:28:19.014Z,101722.97
2022-08-24T11:31:30.193Z,101728.47
2022-08-24T11:34:38.026Z,101726.31
2022-08-24T11:37:42.101Z,101714.25
2022-08-24T11:40:50.951Z,101710.41
2022-08-24T11:44:03.249Z,101714.25
2022-08-24T11:47:19.780Z,101703.81
2022-08-24T11:50:34.066Z,101706.97
2022-08-24T11:53:49.925Z,101704.53
2022-08-24T11:57:08.394Z,101704.59
2022-08-24T12:00:15.994Z,101706.28
2022-08-24T12:03:39.623Z,101693.56
2022-08-24T12:06:55.655Z,101696.94
2022-08-24T12:10:14.153Z,101694.22
2022-08-24T12:13:29.590Z,101689.25
2022-08-24T12:16:40.824Z,101688.81
2022-08-24T12:19:50.355Z,101696.41
2022-08-24T12:22:58.301Z,101688.16
2022-08-24T12:26:05.779Z,101688.25
2022-08-24T12:29:13.571Z,101695.47
2022-08-24T12:32:20.047Z,101686.59
2022-08-24T12:35:28.351Z,101687.75
2022-08-24T12:38:35.911Z,101687.19
2022-08-24T12:41:50.218Z,101689.06
2022-08-24T12:44:57.703Z,101685.41
2022-08-24T12:48:07.295Z,101680.78
2022-08-24T12:51:19.736Z,101675.19
2022-08-24T12:54:41.095Z,101659.81
2022-08-24T12:57:56.901Z,101664.53
2022-08-24T13:01:06.242Z,101665.34
2022-08-24T13:04:18.723Z,101670.31
2022-08-24T13:07:31.095Z,101666.13
2022-08-24T13:10:44.988Z,101664.72
2022-08-24T13:14:08.381Z,101666.16
2022-08-24T13:17:13.829Z,101662.78
2022-08-24T13:20:21.084Z,101664.41
2022-08-24T13:23:24.719Z,101664.09
2022-08-24T13:26:27.830Z,101667.84
2022-08-24T13:29:34.969Z,101673.41
2022-08-24T13:32:41.510Z,101668.72
2022-08-24T13:35:58.390Z,101675.84
2022-08-24T13:39:11.471Z,101680.31
2022-08-24T13:42:28.093Z,101680.56
2022-08-24T13:45:38.051Z,101675.31
2022-08-24T13:48:54.315Z,101666.75
2022-08-24T13:52:10.595Z,101655.25
2022-08-24T13:55:28.801Z,101663.59
2022-08-24T13:58:43.323Z,101660.25
2022-08-24T14:02:05.978Z,101653.69
2022-08-24T14:05:19.238Z,101662.59
2022-08-24T14:08:48.700Z,101659.59
2022-08-24T14:12:11.300Z,101656.19
2022-08-24T14:15:23.778Z,101647.06
2022-08-24T14:18:33.338Z,101645.22
2022-08-24T14:21:45.105Z,101648.56
2022-08-24T14:24:55.320Z,101657.34
2022-08-24T14:28:33.137Z,101659.03
2022-08-24T14:31:36.408Z,101653.81
2022-08-24T14:34:48.762Z,101659.69
2022-08-24T14:38:12.500Z,101656.31
2022-08-24T14:41:25.623Z,101645.59
2022-08-24T14:44:47.178Z,101635.50
2022-08-24T14:48:01.458Z,101636.19
2022-08-24T14:51:13.908Z,101640.53
2022-08-24T14:54:32.187Z,101646.50
2022-08-24T14:57:57.763Z,101639.56
2022-08-24T15:01:13.539Z,101646.72
2022-08-24T15:04:40.460Z,101633.09
2022-08-24T15:07:53.890Z,101627.78
2022-08-24T15:11:00.817Z,101626.13
2022-08-24T15:14:08.414Z,101625.50
2022-08-24T15:17:16.811Z,101622.44
2022-08-24T15:20:28.481Z,101619.44
2022-08-24T15:23:49.500Z,101621.09
2022-08-24T15:27:07.565Z,101622.97
2022-08-24T15:30:21.403Z,101618.72
2022-08-24T15:33:24.629Z,101618.50
2022-08-24T15:36:29.984Z,101616.88
2022-08-24T15:39:34.437Z,101622.88
2022-08-24T15:42:38.142Z,101621.50
2022-08-24T15:45:48.073Z,101622.38
2022-08-24T15:48:51.261Z,101632.19
2022-08-24T15:51:57.733Z,101624.31
2022-08-24T15:55:03.747Z,101624.94
2022-08-24T15:58:37.549Z,101627.50
2022-08-24T16:01:58.501Z,101625.34
2022-08-24T16:05:17.242Z,101624.75
2022-08-24T16:08:20.369Z,101618.16
2022-08-24T16:11:33.138Z,101617.81
2022-08-24T16:14:41.007Z,101620.47
2022-08-24T16:17:51.899Z,101626.63
2022-08-24T16:20:58.813Z,101629.00
2022-08-24T16:24:05.506Z,101620.47
2022-08-24T16:27:12.266Z,101617.03
2022-08-24T16:30:23.340Z,101623.72
2022-08-24T16:33:43.541Z,101625.25
2022-08-24T16:36:48.248Z,101624.78
2022-08-24T16:39:51.070Z,101626.97
2022-08-24T16:42:56.526Z,101617.47
2022-08-24T16:46:00.149Z,101619.13
2022-08-24T16:49:03.000Z,101622.34
2022-08-24T16:52:07.033Z,101624.69
2022-08-24T16:55:10.965Z,101624.63
2022-08-24T16:58:19.109Z,101624.72
2022-08-24T17:01:21.954Z,101629.16
2022-08-24T17:04:24.636Z,101633.69
2022-08-24T17:07:30.229Z,101625.47
2022-08-24T17:10:37.349Z,101628.13
2022-08-24T17:13:50.544Z,101627.69
2022-08-24T17:16:53.589Z,101633.53
2022-08-24T17:19:56.659Z,101631.59
2022-08-24T17:22:59.930Z,101635.44
2022-08-24T17:26:09.661Z,101640.59
2022-08-24T17:29:23.701Z,101632.91
2022-08-24T17:32:26.726Z,101645.97
2022-08-24T17:35:29.576Z,101646.16
2022-08-24T17:38:32.915Z,101658.22
2022-08-24T17:41:36.012Z,101654.94
2022-08-24T17:44:40.155Z,101658.50
2022-08-24T17:47:44.101Z,101663.94
2022-08-24T17:50:47.174Z,101661.53
2022-08-24T17:53:49.934Z,101667.28
2022-08-24T17:56:52.912Z,101675.44
2022-08-24T17:59:57.012Z,101673.13
2022-08-24T18:02:59.856Z,101671.66
2022-08-24T18:06:02.694Z,101676.44
2022-08-24T18:09:08.904Z,101688.34
2022-08-24T18:12:11.744Z,101682.75
2022-08-24T18:15:15.832Z,101686.84
2022-08-24T18:18:18.687Z,101681.56
2022-08-24T18:21:21.997Z,101693.31
2022-08-24T18:24:25.092Z,101692.13
2022-08-24T18:27:30.038Z,101694.41
2022-08-24T18:30:34.192Z,101706.78
2022-08-24T18:33:36.981Z,101710.53
2022-08-24T18:36:39.794Z,101711.19
2022-08-24T18:39:42.511Z,101705.59
2022-08-24T18:42:46.018Z,101711.03
2022-08-24T18:45:50.397Z,101719.59
2022-08-24T18:48:53.556Z,101717.06
2022-08-24T18:51:58.481Z,101727.63
2022-08-24T18:55:01.321Z,101732.38
2022-08-24T18:58:04.403Z,101734.63
2022-08-24T19:01:09.163Z,101735.78
2022-08-24T19:04:14.190Z,101736.09
2022-08-24T19:07:17.229Z,101743.78
2022-08-24T19:10:22.118Z,101744.63
2022-08-24T19:13:26.623Z,101740.13
2022-08-24T19:16:30.785Z,101739.78
2022-08-24T19:19:33.678Z,101740.25
2022-08-24T19:22:36.757Z,101735.00
2022-08-24T19:25:41.840Z,101735.94
2022-08-24T19:28:44.456Z,101731.94
2022-08-24T19:31:48.840Z,101738.13
2022-08-24T19:34:52.395Z,101737.41
2022-08-24T19:37:55.218Z,101742.44
2022-08-24T19:40:59.734Z,101738.25
2022-08-24T19:44:23.463Z,101739.22
2022-08-24T19:47:31.951Z,101741.88
2022-08-24T19:50:36.041Z,101742.00
2022-08-24T19:53:40.096Z,101748.69
2022-08-24T19:56:42.757Z,101742.19
2022-08-24T19:59:45.929Z,101741.44
2022-08-24T20:02:51.544Z,101744.75
2022-08-24T20:05:54.803Z,101742.44
2022-08-24T20:08:57.864Z,101740.78
2022-08-24T20:12:00.740Z,101743.06
2022-08-24T20:15:03.502Z,101745.47
2022-08-24T20:18:07.943Z,101744.72
2022-08-24T20:21:11.092Z,101749.41
2022-08-24T20:24:13.900Z,101747.94
2022-08-24T20:27:22.437Z,101752.19
2022-08-24T20:30:25.251Z,101753.84
2022-08-24T20:33:29.205Z,101751.59
2022-08-24T20:36:36.253Z,101753.91
2022-08-24T20:39:39.541Z,101763.75
2022-08-24T20:42:42.461Z,101751.72
2022-08-24T20:45:45.511Z,101758.25
2022-08-24T20:48:55.646Z,101752.56
2022-08-24T20:52:00.207Z,101757.31
2022-08-24T20:55:05.109Z,101757.66
2022-08-24T20:58:07.904Z,101757.88
2022-08-24T21:01:10.735Z,101763.66
2022-08-24T21:04:15.421Z,101746.59
2022-08-24T21:07:19.591Z,101755.59
2022-08-24T21:10:24.978Z,101753.44
2022-08-24T21:13:29.637Z,101762.97
2022-08-24T21:16:33.958Z,101754.69
2022-08-24T21:19:38.278Z,101753.53
2022-08-24T21:22:41.111Z,101760.59
2022-08-24T21:25:44.014Z,101760.38
2022-08-24T21:28:46.683Z,101761.81
2022-08-24T21:32:03.395Z,101764.09
2022-08-24T21:35:08.005Z,101767.72
2022-08-24T21:38:11.683Z,101766.91
2022-08-24T21:41:15.578Z,101761.59
2022-08-24T21:44:18.358Z,101764.00
2022-08-24T21:47:20.989Z,101769.56
2022-08-24T21:50:25.916Z,101767.69
2022-08-24T21:53:28.823Z,101772.56
2022-08-24T21:56:33.627Z,101771.53
2022-08-24T21:59:36.337Z,101767.41
2022-08-24T22:02:39.218Z,101773.00
2022-08-24T22:05:43.325Z,101779.63
2022-08-24T22:08:46.107Z,101777.22
2022-08-24T22:11:48.977Z,101766.16
2022-08-24T22:14:51.941Z,101774.91
2022-08-24T22:17:55.278Z,101777.31
2022-08-24T22:20:59.645Z,101775.84
2022-08-24T22:24:02.473Z,101771.91
2022-08-24T22:27:05.987Z,101769.13
2022-08-24T22:30:09.443Z,101771.91
2022-08-24T22:33:12.607Z,101767.59
2022-08-24T22:36:17.765Z,101761.75
2022-08-24T22:39:23.482Z,101760.72
2022-08-24T22:42:26.162Z,101768.06
2022-08-24T22:45:29.119Z,101770.88
2022-08-24T22:48:31.762Z,101766.94
2022-08-24T22:51:36.571Z,101764.16
2022-08-24T22:54:39.363Z,101772.31
2022-08-24T22:57:42.566Z,101764.53
2022-08-24T23:00:47.428Z,101771.34
2022-08-24T23:03:51.405Z,101768.31
2022-08-24T23:06:55.502Z,101763.56
2022-08-24T23:09:58.334Z,101763.06
2022-08-24T23:13:01.166Z,101760.84
2022-08-24T23:19:45.220Z,101756.19
2022-08-24T23:22:49.929Z,101757.31
2022-08-24T23:25:52.892Z,101755.97
2022-08-24T23:28:55.588Z,101753.50
2022-08-24T23:31:59.464Z,101754.09
2022-08-24T23:35:02.268Z,101749.13
2022-08-24T23:38:06.401Z,101750.47
2022-08-24T23:41:11.962Z,101756.97
2022-08-24T23:44:16.904Z,101755.94
2022-08-24T23:47:19.681Z,101750.03
2022-08-24T23:50:22.488Z,101750.88
2022-08-24T23:53:26.759Z,101747.56
2022-08-24T23:56:32.852Z,101746.75
2022-08-24T23:59:35.953Z,101734.59
